Star Epsilon — V7NZ7 — position and weather

sailwx.info

Track history (hours):
 
Tides and Currents Weather Stations Pressure Air Temp Water Temp Dewpoint Dewpoint Depression Visibility Wind Speed Wind Dir Waves Ship Positions

Star Epsilon

Last reported at 2014-Oct-31 15:29 UTC. Time now 2014-Oct-31 17:44 UTC.
Position N 29°44' W 095°09'.

Length 189 m; draft 6.7 m.

Type: Cargo ship. MMSI: 538003043.

Date/timePositionNaut miles runAvg speedWind from/ knotsBaromVisibWave heightAir tempDewpointWater temp
2014-Oct-31 15:29N 29°44' W 095°09'0 0.0
2014-Oct-31 13:29N 29°44' W 095°09'0 0.0
2014-Oct-31 12:32N 29°44' W 095°09'0 0.0
2014-Oct-31 11:32N 29°44' W 095°09'0 0.0
2014-Oct-31 10:30N 29°44' W 095°09'0 0.2
2014-Oct-31 09:33N 29°44' W 095°09'5 5.4
2014-Oct-31 08:33N 29°44' W 095°03'1010.2
2014-Oct-31 07:33N 29°35' W 094°56'1312.4
2014-Oct-31 06:33N 29°24' W 094°49'  
2014-Oct-27 13:11N 25°40' W 079°58'912.6
2014-Oct-27 12:28N 25°49' W 079°57'1112.1
2014-Oct-27 11:34N 25°60' W 079°57'1212.1
2014-Oct-27 10:34N 26°12' W 079°56'1212.2
2014-Oct-27 09:34N 26°24' W 079°55'1212.3
2014-Oct-27 08:33N 26°36' W 079°54'1212.1
2014-Oct-27 07:33N 26°48' W 079°54'  
2014-Oct-24 15:33N 39°30' W 073°49'1414.1
2014-Oct-24 14:33N 39°44' W 073°49'3313.9
2014-Oct-24 12:09N 40°18' W 073°48'1012.6
2014-Oct-24 11:21N 40°28' W 073°51'911.9
2014-Oct-24 10:33N 40°32' W 074°01'6 5.6
2014-Oct-24 09:30N 40°38' W 074°04'0 0.1
2014-Oct-24 08:33N 40°38' W 074°04'0 0.0
2014-Oct-24 07:33N 40°38' W 074°04'0 0.0
2014-Oct-24 06:33N 40°38' W 074°04'0 0.0
2014-Oct-24 05:33N 40°38' W 074°04'4 4.0
2014-Oct-24 04:33N 40°42' W 074°02'  
Track history (hours):
 
Tides and Currents Weather Stations Pressure Air Temp Water Temp Dewpoint Dewpoint Depression Visibility Wind Speed Wind Dir Waves Ship Positions

Star Epsilon

Last reported at 2014-Oct-31 15:29 UTC. Time now 2014-Oct-31 17:44 UTC.
Position N 29°44' W 095°09'.

Length 189 m; draft 6.7 m.

Type: Cargo ship. MMSI: 538003043.

Date/timePositionNaut miles runAvg speedWind from/ knotsBaromVisibWave heightAir tempDewpointWater temp
2014-Oct-31 15:29N 29°44' W 095°09'0 0.0
2014-Oct-31 13:29N 29°44' W 095°09'0 0.0
2014-Oct-31 12:32N 29°44' W 095°09'0 0.0
2014-Oct-31 11:32N 29°44' W 095°09'0 0.0
2014-Oct-31 10:30N 29°44' W 095°09'0 0.2
2014-Oct-31 09:33N 29°44' W 095°09'5 5.4
2014-Oct-31 08:33N 29°44' W 095°03'1010.2
2014-Oct-31 07:33N 29°35' W 094°56'1312.4
2014-Oct-31 06:33N 29°24' W 094°49'  
2014-Oct-27 13:11N 25°40' W 079°58'912.6
2014-Oct-27 12:28N 25°49' W 079°57'1112.1
2014-Oct-27 11:34N 25°60' W 079°57'1212.1
2014-Oct-27 10:34N 26°12' W 079°56'1212.2
2014-Oct-27 09:34N 26°24' W 079°55'1212.3
2014-Oct-27 08:33N 26°36' W 079°54'1212.1
2014-Oct-27 07:33N 26°48' W 079°54'  
2014-Oct-24 15:33N 39°30' W 073°49'1414.1
2014-Oct-24 14:33N 39°44' W 073°49'3313.9
2014-Oct-24 12:09N 40°18' W 073°48'1012.6
2014-Oct-24 11:21N 40°28' W 073°51'911.9
2014-Oct-24 10:33N 40°32' W 074°01'6 5.6
2014-Oct-24 09:30N 40°38' W 074°04'0 0.1
2014-Oct-24 08:33N 40°38' W 074°04'0 0.0
2014-Oct-24 07:33N 40°38' W 074°04'0 0.0
2014-Oct-24 06:33N 40°38' W 074°04'0 0.0
2014-Oct-24 05:33N 40°38' W 074°04'4 4.0
2014-Oct-24 04:33N 40°42' W 074°02'  

Dump ship's entire track history